createdAt,value
2023-01-07T00:00:09.625Z,20
2023-01-07T00:01:09.399Z,16
2023-01-07T00:02:09.379Z,16
2023-01-07T00:03:09.413Z,16
2023-01-07T00:04:09.367Z,16
2023-01-07T00:05:09.390Z,16
2023-01-07T00:06:09.345Z,16
2023-01-07T00:07:09.335Z,16
2023-01-07T00:08:09.322Z,16
2023-01-07T00:09:09.312Z,16
2023-01-07T00:10:09.296Z,16
2023-01-07T00:11:09.298Z,16
2023-01-07T00:12:09.286Z,16
2023-01-07T00:13:09.263Z,16
2023-01-07T00:14:09.255Z,16
2023-01-07T00:15:09.320Z,16
2023-01-07T00:16:09.239Z,16
2023-01-07T00:17:09.223Z,16
2023-01-07T00:18:09.219Z,16
2023-01-07T00:19:09.211Z,16
2023-01-07T00:20:09.227Z,16
2023-01-07T00:21:09.181Z,16
2023-01-07T00:22:09.193Z,16
2023-01-07T00:23:09.163Z,20
2023-01-07T00:24:09.189Z,16
2023-01-07T00:25:09.174Z,16
2023-01-07T00:26:09.134Z,16
2023-01-07T00:27:09.122Z,16
2023-01-07T00:28:09.130Z,16
2023-01-07T00:29:09.098Z,16
2023-01-07T00:30:09.089Z,16
2023-01-07T00:31:09.074Z,16
2023-01-07T00:32:09.124Z,16
2023-01-07T00:33:09.068Z,16
2023-01-07T00:34:09.040Z,16
2023-01-07T00:35:09.115Z,16
2023-01-07T00:36:09.033Z,16
2023-01-07T00:37:09.010Z,16
2023-01-07T00:38:09.008Z,16
2023-01-07T00:39:08.993Z,16
2023-01-07T00:40:08.996Z,16
2023-01-07T00:41:08.990Z,16
2023-01-07T00:42:08.967Z,16
2023-01-07T00:43:08.947Z,16
2023-01-07T00:44:08.935Z,16
2023-01-07T00:45:08.952Z,16
2023-01-07T00:46:08.914Z,16
2023-01-07T00:47:08.910Z,16
2023-01-07T00:48:08.896Z,16
2023-01-07T00:49:08.880Z,16
2023-01-07T00:50:08.874Z,16
2023-01-07T00:51:08.864Z,16
2023-01-07T00:52:08.865Z,16
2023-01-07T00:53:08.851Z,16
2023-01-07T00:54:08.846Z,16
2023-01-07T00:55:08.861Z,16
2023-01-07T00:56:08.818Z,16
2023-01-07T00:57:08.799Z,16
2023-01-07T00:58:08.787Z,16
2023-01-07T00:59:08.783Z,16
2023-01-07T01:00:08.793Z,16
2023-01-07T01:01:08.756Z,16
2023-01-07T01:02:08.746Z,16
2023-01-07T01:03:08.735Z,16
2023-01-07T01:04:08.726Z,16
2023-01-07T01:05:08.717Z,16
2023-01-07T01:06:08.734Z,16
2023-01-07T01:07:08.709Z,16
2023-01-07T01:08:08.686Z,16
2023-01-07T01:09:08.690Z,16
2023-01-07T01:10:08.700Z,16
2023-01-07T01:11:08.655Z,16
2023-01-07T01:12:08.645Z,16
2023-01-07T01:13:08.634Z,16
2023-01-07T01:14:08.622Z,16
2023-01-07T01:15:08.621Z,16
2023-01-07T01:16:08.599Z,16
2023-01-07T01:17:08.589Z,16
2023-01-07T01:18:08.578Z,16
2023-01-07T01:19:08.638Z,16
2023-01-07T01:20:08.610Z,16
2023-01-07T01:21:08.562Z,16
2023-01-07T01:22:08.609Z,16
2023-01-07T01:23:08.561Z,16
2023-01-07T01:24:08.519Z,16
2023-01-07T01:25:08.532Z,16
2023-01-07T01:26:08.498Z,16
2023-01-07T01:27:08.496Z,16
2023-01-07T01:28:08.473Z,16
2023-01-07T01:29:08.455Z,16
2023-01-07T01:30:08.473Z,16
2023-01-07T01:31:08.471Z,16
2023-01-07T01:32:08.431Z,16
2023-01-07T01:33:08.422Z,16
2023-01-07T01:34:08.404Z,16
2023-01-07T01:35:08.397Z,16
2023-01-07T01:36:08.384Z,16
2023-01-07T01:37:08.410Z,16
2023-01-07T01:38:08.358Z,16
2023-01-07T01:39:08.367Z,16
2023-01-07T01:40:08.362Z,16
2023-01-07T01:41:08.339Z,16
2023-01-07T01:42:08.356Z,16
2023-01-07T01:43:08.376Z,16
2023-01-07T01:44:08.364Z,16
2023-01-07T01:45:08.315Z,16
2023-01-07T01:46:08.283Z,16
2023-01-07T01:47:08.305Z,16
2023-01-07T01:48:08.256Z,16
2023-01-07T01:49:08.253Z,16
2023-01-07T01:50:08.240Z,16
2023-01-07T01:51:08.262Z,16
2023-01-07T01:52:08.219Z,16
2023-01-07T01:53:08.214Z,16
2023-01-07T01:54:08.273Z,16
2023-01-07T01:55:08.181Z,16
2023-01-07T01:56:08.202Z,16
2023-01-07T01:57:08.160Z,16
2023-01-07T01:58:08.146Z,16
2023-01-07T01:59:08.140Z,16
2023-01-07T02:00:08.143Z,16
2023-01-07T02:01:08.128Z,16
2023-01-07T02:02:08.125Z,16
2023-01-07T02:03:08.106Z,16
2023-01-07T02:04:08.086Z,16
2023-01-07T02:05:08.088Z,16
2023-01-07T02:06:08.074Z,16
2023-01-07T02:07:08.076Z,16
2023-01-07T02:08:08.044Z,16
2023-01-07T02:09:08.033Z,16
2023-01-07T02:10:08.035Z,16
2023-01-07T02:11:08.018Z,16
2023-01-07T02:12:08.021Z,16
2023-01-07T02:13:08.044Z,16
2023-01-07T02:14:07.994Z,16
2023-01-07T02:15:07.993Z,16
2023-01-07T02:16:08.003Z,16
2023-01-07T02:17:07.952Z,16
2023-01-07T02:18:07.933Z,16
2023-01-07T02:19:07.929Z,16
2023-01-07T02:20:07.911Z,16
2023-01-07T02:21:08.157Z,16
2023-01-07T02:22:07.911Z,16
2023-01-07T02:23:07.957Z,16
2023-01-07T02:24:07.878Z,16
2023-01-07T02:25:08.018Z,16
2023-01-07T02:26:07.886Z,16
2023-01-07T02:27:07.838Z,16
2023-01-07T02:28:07.830Z,16
2023-01-07T02:29:07.816Z,16
2023-01-07T02:30:07.815Z,16
2023-01-07T02:31:07.817Z,16
2023-01-07T02:32:07.786Z,16
2023-01-07T02:33:07.781Z,16
2023-01-07T02:34:07.763Z,16
2023-01-07T02:35:07.752Z,16
2023-01-07T02:36:07.758Z,16
2023-01-07T02:37:07.736Z,16
2023-01-07T02:38:07.769Z,16
2023-01-07T02:39:07.719Z,16
2023-01-07T02:40:07.770Z,16
2023-01-07T02:41:07.697Z,16
2023-01-07T02:42:07.713Z,16
2023-01-07T02:43:07.720Z,16
2023-01-07T02:44:07.725Z,16
2023-01-07T02:45:07.661Z,16
2023-01-07T02:46:07.659Z,16
2023-01-07T02:47:07.703Z,16
2023-01-07T02:48:07.624Z,16
2023-01-07T02:49:07.601Z,16
2023-01-07T02:50:07.599Z,16
2023-01-07T02:51:07.599Z,16
2023-01-07T02:52:07.575Z,16
2023-01-07T02:53:07.577Z,16
2023-01-07T02:54:07.554Z,16
2023-01-07T02:55:07.541Z,16
2023-01-07T02:56:07.530Z,16
2023-01-07T02:57:07.515Z,16
2023-01-07T02:58:07.566Z,16
2023-01-07T02:59:07.542Z,16
2023-01-07T03:00:07.505Z,16
2023-01-07T03:01:07.512Z,16
2023-01-07T03:02:07.463Z,16
2023-01-07T03:03:07.448Z,16
2023-01-07T03:04:07.443Z,16
2023-01-07T03:05:07.438Z,16
2023-01-07T03:06:07.430Z,16
2023-01-07T03:07:07.521Z,16
2023-01-07T03:08:07.405Z,16
2023-01-07T03:09:07.386Z,16
2023-01-07T03:10:07.375Z,16
2023-01-07T03:11:07.377Z,16
2023-01-07T03:12:07.362Z,16
2023-01-07T03:13:07.345Z,16
2023-01-07T03:14:07.335Z,16
2023-01-07T03:15:07.422Z,16
2023-01-07T03:16:07.331Z,16
2023-01-07T03:17:07.305Z,20
2023-01-07T03:18:07.294Z,16
2023-01-07T03:19:07.297Z,16
2023-01-07T03:20:07.267Z,16
2023-01-07T03:21:07.275Z,16
2023-01-07T03:22:07.272Z,16
2023-01-07T03:23:07.237Z,16
2023-01-07T03:24:07.231Z,16
2023-01-07T03:25:07.220Z,16
2023-01-07T03:26:07.214Z,16
2023-01-07T03:27:07.336Z,16
2023-01-07T03:28:07.221Z,16
2023-01-07T03:29:07.179Z,16
2023-01-07T03:30:07.213Z,16
2023-01-07T03:31:07.154Z,16
2023-01-07T03:32:07.146Z,16
2023-01-07T03:33:07.129Z,16
2023-01-07T03:34:07.148Z,16
2023-01-07T03:35:07.142Z,16
2023-01-07T03:36:07.102Z,16
2023-01-07T03:37:07.090Z,16
2023-01-07T03:38:07.090Z,16
2023-01-07T03:39:07.074Z,16
2023-01-07T03:40:07.058Z,16
2023-01-07T03:41:07.049Z,16
2023-01-07T03:42:07.048Z,16
2023-01-07T03:43:07.028Z,16
2023-01-07T03:44:07.034Z,16
2023-01-07T03:45:07.009Z,16
2023-01-07T03:46:07.006Z,16
2023-01-07T03:47:06.983Z,16
2023-01-07T03:48:06.998Z,16
2023-01-07T03:49:06.965Z,16
2023-01-07T03:50:06.954Z,16
2023-01-07T03:51:06.951Z,16
2023-01-07T03:52:06.947Z,16
2023-01-07T03:53:06.925Z,16
2023-01-07T03:54:06.920Z,16
2023-01-07T03:55:06.923Z,16
2023-01-07T03:56:06.892Z,16
2023-01-07T03:57:06.896Z,16
2023-01-07T03:58:06.889Z,16
2023-01-07T03:59:06.863Z,16
2023-01-07T04:00:06.876Z,16
2023-01-07T04:01:07.097Z,20
2023-01-07T04:02:06.835Z,20
2023-01-07T04:03:06.828Z,20
2023-01-07T04:04:06.804Z,20
2023-01-07T04:05:06.798Z,20
2023-01-07T04:06:06.789Z,20
2023-01-07T04:07:06.805Z,20
2023-01-07T04:08:06.784Z,20
2023-01-07T04:09:06.766Z,20
2023-01-07T04:10:06.770Z,20
2023-01-07T04:11:06.739Z,20
2023-01-07T04:12:06.723Z,20
2023-01-07T04:13:06.714Z,20
2023-01-07T04:14:06.703Z,20
2023-01-07T04:15:06.710Z,20
2023-01-07T04:16:06.709Z,20
2023-01-07T04:17:06.692Z,20
2023-01-07T04:18:06.658Z,20
2023-01-07T04:19:06.650Z,20
2023-01-07T04:20:06.681Z,20
2023-01-07T04:21:06.632Z,20
2023-01-07T04:22:06.624Z,20
2023-01-07T04:23:06.608Z,20
2023-01-07T04:24:06.597Z,20
2023-01-07T04:25:06.590Z,20
2023-01-07T04:26:06.591Z,20
2023-01-07T04:27:06.564Z,20
2023-01-07T04:28:06.556Z,20
2023-01-07T04:29:06.548Z,20
2023-01-07T04:30:06.550Z,20
2023-01-07T04:31:06.523Z,24
2023-01-07T04:32:06.538Z,20
2023-01-07T04:33:06.561Z,20
2023-01-07T04:34:06.489Z,20
2023-01-07T04:35:06.492Z,20
2023-01-07T04:36:06.481Z,20
2023-01-07T04:37:06.465Z,20
2023-01-07T04:38:06.464Z,20
2023-01-07T04:39:06.436Z,20
2023-01-07T04:40:06.433Z,20
2023-01-07T04:41:06.427Z,20
2023-01-07T04:42:06.403Z,20
2023-01-07T05:20:45.798Z,24
2023-01-07T05:21:46.022Z,24
2023-01-07T05:22:46.236Z,24
2023-01-07T05:23:45.761Z,24
2023-01-07T05:24:45.793Z,24
2023-01-07T05:25:45.846Z,24
2023-01-07T05:26:45.673Z,24
2023-01-07T05:27:45.650Z,24
2023-01-07T05:28:45.592Z,24
2023-01-07T05:29:45.570Z,24
2023-01-07T05:30:45.608Z,24
2023-01-07T05:31:45.566Z,24
2023-01-07T05:32:45.569Z,24
2023-01-07T05:33:45.551Z,24
2023-01-07T05:34:45.540Z,24
2023-01-07T05:35:45.541Z,24
2023-01-07T05:36:45.515Z,24
2023-01-07T05:37:45.500Z,24
2023-01-07T05:38:45.513Z,24
2023-01-07T05:39:45.482Z,24
2023-01-07T05:40:45.465Z,24
2023-01-07T05:41:45.475Z,24
2023-01-07T05:42:45.466Z,24
2023-01-07T05:43:45.434Z,24
2023-01-07T05:44:45.418Z,24
2023-01-07T05:45:45.409Z,24
2023-01-07T05:46:45.405Z,24
2023-01-07T05:47:45.396Z,24
2023-01-07T05:48:45.387Z,24
2023-01-07T05:49:45.377Z,24
2023-01-07T05:50:45.346Z,24
2023-01-07T05:51:45.354Z,24
2023-01-07T05:52:45.397Z,24
2023-01-07T05:53:45.322Z,24
2023-01-07T05:54:45.305Z,24
2023-01-07T05:55:45.315Z,24
2023-01-07T05:56:45.290Z,24
2023-01-07T05:57:45.293Z,24
2023-01-07T05:58:45.292Z,24
2023-01-07T05:59:45.288Z,28
2023-01-07T06:00:45.247Z,24
2023-01-07T06:01:45.246Z,24
2023-01-07T06:02:45.236Z,24
2023-01-07T06:03:45.223Z,24
2023-01-07T06:04:45.218Z,24
2023-01-07T06:05:45.220Z,24
2023-01-07T06:06:45.183Z,24
2023-01-07T06:07:45.169Z,24
2023-01-07T06:08:45.156Z,24
2023-01-07T06:09:45.210Z,24
2023-01-07T06:10:46.145Z,24
2023-01-07T06:11:45.123Z,24
2023-01-07T06:12:45.107Z,24
2023-01-07T06:13:45.110Z,24
2023-01-07T06:14:45.113Z,24
2023-01-07T06:15:45.082Z,24
2023-01-07T06:16:45.072Z,24
2023-01-07T06:17:45.063Z,24
2023-01-07T06:18:45.054Z,24
2023-01-07T06:19:45.042Z,24
2023-01-07T06:20:45.024Z,24
2023-01-07T06:21:45.022Z,24
2023-01-07T06:22:45.040Z,24
2023-01-07T06:23:45.008Z,24
2023-01-07T06:24:45.003Z,24
2023-01-07T06:25:44.986Z,24
2023-01-07T06:26:44.972Z,24
2023-01-07T06:27:44.956Z,24
2023-01-07T06:28:45.058Z,24
2023-01-07T06:29:44.934Z,24
2023-01-07T06:30:44.919Z,24
2023-01-07T06:31:44.908Z,24
2023-01-07T06:32:44.919Z,24
2023-01-07T06:33:44.901Z,24
2023-01-07T06:34:44.882Z,24
2023-01-07T06:35:44.878Z,24
2023-01-07T06:36:44.889Z,24
2023-01-07T06:37:44.867Z,24
2023-01-07T06:38:45.139Z,24
2023-01-07T06:45:24.430Z,24
2023-01-07T06:46:24.224Z,24
2023-01-07T06:47:24.025Z,24
2023-01-07T06:48:24.115Z,24
2023-01-07T06:49:24.997Z,20
2023-01-07T06:50:23.960Z,24
2023-01-07T06:51:23.981Z,28
2023-01-07T06:52:24.270Z,24
2023-01-07T06:53:23.956Z,24
2023-01-07T06:54:24.088Z,24
2023-01-07T06:55:23.989Z,24
2023-01-07T06:56:24.030Z,24
2023-01-07T06:57:25.022Z,24
2023-01-07T06:58:24.026Z,24
2023-01-07T06:59:24.122Z,24
2023-01-07T07:02:26.144Z,28
2023-01-07T07:03:25.705Z,24
2023-01-07T07:04:25.687Z,24
2023-01-07T07:05:25.683Z,28
2023-01-07T07:06:25.669Z,28
2023-01-07T07:07:25.651Z,28
2023-01-07T07:08:25.643Z,28
2023-01-07T07:09:25.626Z,28
2023-01-07T07:10:25.615Z,32
2023-01-07T07:11:25.631Z,36
2023-01-07T07:12:25.633Z,24
2023-01-07T07:13:25.590Z,28
2023-01-07T07:14:25.574Z,28
2023-01-07T07:15:25.562Z,36
2023-01-07T07:16:25.553Z,36
2023-01-07T07:17:25.550Z,40
2023-01-07T07:18:25.532Z,44
2023-01-07T07:19:25.518Z,48
2023-01-07T07:20:25.507Z,52
2023-01-07T07:21:25.501Z,64
2023-01-07T07:22:25.496Z,68
2023-01-07T07:23:25.488Z,72
2023-01-07T07:24:25.468Z,76
2023-01-07T07:25:25.458Z,84
2023-01-07T07:26:25.446Z,88
2023-01-07T07:27:25.437Z,92
2023-01-07T07:28:25.441Z,88
2023-01-07T07:29:25.413Z,96
2023-01-07T07:30:25.408Z,96
2023-01-07T07:31:25.390Z,112
2023-01-07T07:32:25.381Z,120
2023-01-07T07:33:25.372Z,124
2023-01-07T07:34:25.358Z,136
2023-01-07T07:35:25.377Z,148
2023-01-07T07:36:25.352Z,156
2023-01-07T07:37:25.328Z,172
2023-01-07T07:38:25.317Z,184
2023-01-07T07:39:25.306Z,196
2023-01-07T07:40:25.299Z,208
2023-01-07T07:41:25.285Z,220
2023-01-07T07:42:25.909Z,240
2023-01-07T07:43:25.260Z,256
2023-01-07T07:44:25.265Z,276
2023-01-07T07:45:25.243Z,300
2023-01-07T07:46:25.271Z,320
2023-01-07T07:47:25.244Z,344
2023-01-07T07:48:25.212Z,376
2023-01-07T07:49:25.199Z,412
2023-01-07T07:50:25.193Z,448
2023-01-07T07:51:25.210Z,472
2023-01-07T07:52:25.160Z,492
2023-01-07T07:53:25.152Z,520
2023-01-07T07:54:25.143Z,536
2023-01-07T07:55:25.131Z,540
2023-01-07T07:56:25.120Z,552
2023-01-07T07:57:25.110Z,560
2023-01-07T07:58:25.108Z,576
2023-01-07T07:59:25.086Z,600
2023-01-07T08:00:25.123Z,636
2023-01-07T08:01:25.084Z,640
2023-01-07T08:02:25.205Z,608
2023-01-07T08:03:25.042Z,572
2023-01-07T08:04:25.032Z,548
2023-01-07T08:05:25.024Z,544
2023-01-07T08:06:25.008Z,556
2023-01-07T08:07:25.013Z,600
2023-01-07T08:08:24.989Z,640
2023-01-07T08:09:24.978Z,680
2023-01-07T08:10:24.964Z,720
2023-01-07T08:11:24.964Z,744
2023-01-07T08:12:24.952Z,788
2023-01-07T08:13:24.931Z,808
2023-01-07T08:14:24.922Z,832
2023-01-07T08:15:24.921Z,868
2023-01-07T08:16:24.902Z,916
2023-01-07T08:17:24.897Z,972
2023-01-07T08:18:24.877Z,1000
2023-01-07T08:19:24.873Z,1020
2023-01-07T08:20:24.860Z,1064
2023-01-07T08:21:24.866Z,1116
2023-01-07T08:22:24.837Z,1136
2023-01-07T08:23:24.879Z,1168
2023-01-07T08:24:24.818Z,1184
2023-01-07T08:25:24.802Z,1188
2023-01-07T08:26:24.792Z,1184
2023-01-07T08:27:24.776Z,1152
2023-01-07T08:28:24.790Z,1144
2023-01-07T08:29:24.779Z,1116
2023-01-07T08:30:24.745Z,1100
2023-01-07T08:31:24.739Z,1124
2023-01-07T08:32:24.738Z,1172
2023-01-07T08:33:24.738Z,1228
2023-01-07T08:34:24.709Z,1272
2023-01-07T08:35:24.700Z,1316
2023-01-07T08:36:24.690Z,1352
2023-01-07T08:37:24.680Z,1352
2023-01-07T08:38:24.664Z,1428
2023-01-07T08:39:24.653Z,1456
2023-01-07T08:40:24.638Z,1380
2023-01-07T08:41:24.634Z,1340
2023-01-07T08:42:24.627Z,1340
2023-01-07T08:43:24.621Z,1388
2023-01-07T08:44:24.610Z,1464
2023-01-07T08:45:24.597Z,1536
2023-01-07T08:46:24.597Z,1544
2023-01-07T08:47:24.859Z,1492
2023-01-07T08:48:24.703Z,1408
2023-01-07T08:49:24.555Z,1352
2023-01-07T08:50:24.532Z,1360
2023-01-07T08:51:24.536Z,1368
2023-01-07T08:52:24.523Z,1388
2023-01-07T08:53:24.503Z,1428
2023-01-07T08:54:24.521Z,1440
2023-01-07T08:55:25.448Z,1472
2023-01-07T08:56:24.593Z,1524
2023-01-07T08:57:24.601Z,1576
2023-01-07T08:58:24.513Z,1660
2023-01-07T08:59:24.438Z,1692
2023-01-07T09:00:24.426Z,1664
2023-01-07T09:01:24.421Z,1704
2023-01-07T09:02:24.413Z,1756
2023-01-07T09:03:24.401Z,1876
2023-01-07T09:04:24.387Z,2072
2023-01-07T09:05:24.394Z,2188
2023-01-07T09:06:24.362Z,2192
2023-01-07T09:07:24.350Z,2224
2023-01-07T09:08:24.339Z,2200
2023-01-07T09:09:24.350Z,2164
2023-01-07T09:10:24.333Z,2200
2023-01-07T09:11:24.307Z,2312
2023-01-07T09:12:24.301Z,2412
2023-01-07T09:13:24.300Z,2472
2023-01-07T09:14:24.276Z,2528
2023-01-07T09:15:24.283Z,2628
2023-01-07T09:16:24.257Z,2880
2023-01-07T09:17:24.261Z,3068
2023-01-07T09:18:24.240Z,3280
2023-01-07T09:19:24.253Z,3272
2023-01-07T09:20:24.214Z,3172
2023-01-07T09:21:24.208Z,3140
2023-01-07T09:22:24.209Z,3224
2023-01-07T09:23:24.186Z,3340
2023-01-07T09:24:24.178Z,3384
2023-01-07T09:25:24.186Z,3336
2023-01-07T09:26:24.172Z,3296
2023-01-07T09:27:24.153Z,3332
2023-01-07T09:28:24.129Z,3292
2023-01-07T09:29:24.116Z,3236
2023-01-07T09:30:24.111Z,3260
2023-01-07T09:31:24.109Z,3404
2023-01-07T09:32:24.088Z,3460
2023-01-07T09:33:24.074Z,3520
2023-01-07T09:34:24.076Z,3700
2023-01-07T09:35:24.054Z,3820
2023-01-07T09:36:24.070Z,4016
2023-01-07T09:37:24.032Z,4224
2023-01-07T09:38:24.023Z,4448
2023-01-07T09:39:24.008Z,4700
2023-01-07T09:40:24.002Z,4988
2023-01-07T09:41:23.997Z,4944
2023-01-07T09:42:23.979Z,4744
2023-01-07T09:43:23.999Z,4728
2023-01-07T09:44:23.958Z,4916
2023-01-07T09:45:23.954Z,4760
2023-01-07T09:46:23.949Z,5004
2023-01-07T09:47:23.931Z,5152
2023-01-07T09:48:23.915Z,5212
2023-01-07T09:49:23.908Z,4816
2023-01-07T09:50:23.890Z,5140
2023-01-07T09:51:23.885Z,5076
2023-01-07T09:52:23.875Z,4616
2023-01-07T09:53:23.861Z,4540
2023-01-07T09:54:23.904Z,4288
2023-01-07T09:55:23.842Z,4008
2023-01-07T09:56:23.830Z,3708
2023-01-07T09:57:23.816Z,3412
2023-01-07T09:58:23.805Z,3272
2023-01-07T09:59:23.800Z,3200
2023-01-07T10:00:23.832Z,2948
2023-01-07T10:01:23.775Z,2740
2023-01-07T10:02:23.766Z,2708
2023-01-07T10:03:23.754Z,2604
2023-01-07T10:04:23.802Z,2400
2023-01-07T10:05:23.737Z,2324
2023-01-07T10:06:23.715Z,2240
2023-01-07T10:07:23.722Z,2284
2023-01-07T10:08:23.702Z,2568
2023-01-07T10:09:23.690Z,2668
2023-01-07T10:10:23.673Z,2892
2023-01-07T10:11:23.678Z,3128
2023-01-07T10:12:23.665Z,3360
2023-01-07T10:13:23.644Z,3512
2023-01-07T10:14:23.683Z,3708
2023-01-07T10:15:23.643Z,3820
2023-01-07T10:16:23.610Z,3828
2023-01-07T10:17:23.609Z,3944
2023-01-07T10:18:23.590Z,4064
2023-01-07T10:19:23.585Z,4636
2023-01-07T10:20:23.577Z,5268
2023-01-07T10:21:23.560Z,5724
2023-01-07T10:22:23.547Z,5820
2023-01-07T10:23:23.540Z,5516
2023-01-07T10:24:23.524Z,4988
2023-01-07T10:25:23.556Z,4412
2023-01-07T10:26:23.508Z,3836
2023-01-07T10:27:23.492Z,3620
2023-01-07T10:28:23.490Z,3540
2023-01-07T10:29:23.479Z,3480
2023-01-07T10:30:23.462Z,3420
2023-01-07T10:31:23.451Z,3504
2023-01-07T10:32:23.447Z,3388
2023-01-07T10:33:23.433Z,3292
2023-01-07T10:34:23.426Z,3380
2023-01-07T10:35:23.428Z,3420
2023-01-07T10:36:23.429Z,3420
2023-01-07T10:37:23.384Z,3676
2023-01-07T10:38:23.373Z,3848
2023-01-07T10:39:23.369Z,3816
2023-01-07T10:40:23.366Z,3724
2023-01-07T10:41:23.341Z,3552
2023-01-07T10:42:23.343Z,3472
2023-01-07T10:43:23.326Z,3324
2023-01-07T10:44:23.316Z,3224
2023-01-07T10:45:23.311Z,3240
2023-01-07T10:46:23.288Z,2964
2023-01-07T10:47:23.277Z,2736
2023-01-07T10:48:23.279Z,2788
2023-01-07T10:49:23.301Z,2768
2023-01-07T10:50:23.243Z,2752
2023-01-07T10:51:23.242Z,2504
2023-01-07T10:52:23.222Z,2484
2023-01-07T10:53:23.214Z,2560
2023-01-07T10:54:23.219Z,2452
2023-01-07T10:55:23.190Z,2260
2023-01-07T10:56:23.203Z,2180
2023-01-07T10:57:23.207Z,2056
2023-01-07T10:58:23.176Z,1908
2023-01-07T10:59:23.156Z,1784
2023-01-07T11:00:23.140Z,1692
2023-01-07T11:01:23.127Z,1600
2023-01-07T11:02:23.118Z,1560
2023-01-07T11:03:23.104Z,1592
2023-01-07T11:04:23.095Z,1696
2023-01-07T11:05:23.080Z,1732
2023-01-07T11:06:23.120Z,1696
2023-01-07T11:07:23.109Z,1668
2023-01-07T11:08:23.065Z,1628
2023-01-07T11:09:23.043Z,1608
2023-01-07T11:10:23.031Z,1612
2023-01-07T11:11:23.022Z,1636
2023-01-07T11:12:23.022Z,1656
2023-01-07T11:13:23.033Z,1608
2023-01-07T11:14:23.005Z,1600
2023-01-07T11:15:22.979Z,1600
2023-01-07T11:16:22.967Z,1616
2023-01-07T11:17:22.995Z,1660
2023-01-07T11:18:23.919Z,1684
2023-01-07T11:19:22.948Z,1680
2023-01-07T11:20:22.948Z,1652
2023-01-07T11:21:22.932Z,1696
2023-01-07T11:22:22.903Z,1824
2023-01-07T11:23:22.886Z,1868
2023-01-07T11:24:22.885Z,1892
2023-01-07T11:25:22.893Z,1960
2023-01-07T11:26:22.863Z,1956
2023-01-07T11:27:22.874Z,2000
2023-01-07T11:28:22.854Z,2052
2023-01-07T11:29:22.831Z,2140
2023-01-07T11:30:22.848Z,2176
2023-01-07T11:31:22.804Z,2204
2023-01-07T11:32:22.792Z,2372
2023-01-07T11:33:22.800Z,2544
2023-01-07T11:34:22.785Z,2772
2023-01-07T11:35:22.768Z,2896
2023-01-07T11:36:22.767Z,3076
2023-01-07T11:37:22.750Z,3056
2023-01-07T11:38:22.783Z,2872
2023-01-07T11:39:22.719Z,2724
2023-01-07T11:40:22.712Z,2660
2023-01-07T11:41:22.700Z,2780
2023-01-07T11:42:22.682Z,2916
2023-01-07T11:43:22.712Z,2876
2023-01-07T11:44:22.776Z,2752
2023-01-07T11:45:22.675Z,2740
2023-01-07T11:46:22.643Z,2724
2023-01-07T11:47:22.632Z,2704
2023-01-07T11:48:22.623Z,2664
2023-01-07T11:49:22.630Z,2656
2023-01-07T11:50:22.645Z,2544
2023-01-07T11:51:22.593Z,2428
2023-01-07T11:52:22.581Z,2200
2023-01-07T11:53:22.572Z,2164
2023-01-07T11:54:22.571Z,2220
2023-01-07T11:55:22.558Z,2460
2023-01-07T11:56:22.548Z,2592
2023-01-07T11:57:22.526Z,2352
2023-01-07T11:58:22.514Z,2160
2023-01-07T11:59:22.513Z,1848
2023-01-07T12:00:22.505Z,1568
2023-01-07T12:01:22.486Z,1508
2023-01-07T12:02:22.472Z,1448
2023-01-07T12:03:22.476Z,1368
2023-01-07T12:04:22.510Z,1340
2023-01-07T12:05:22.440Z,1284
2023-01-07T12:06:22.467Z,1248
2023-01-07T12:07:22.451Z,1188
2023-01-07T12:08:22.409Z,1180
2023-01-07T12:09:22.415Z,1180
2023-01-07T12:10:22.385Z,1152
2023-01-07T12:11:22.378Z,1072
2023-01-07T12:12:22.364Z,988
2023-01-07T12:13:22.397Z,936
2023-01-07T12:14:22.911Z,884
2023-01-07T12:15:22.329Z,884
2023-01-07T12:16:22.333Z,896
2023-01-07T12:17:22.335Z,912
2023-01-07T12:18:22.347Z,916
2023-01-07T12:19:22.356Z,948
2023-01-07T12:20:22.279Z,940
2023-01-07T12:21:22.268Z,948
2023-01-07T12:22:22.283Z,956
2023-01-07T12:23:22.245Z,944
2023-01-07T12:24:22.243Z,944
2023-01-07T12:25:22.237Z,972
2023-01-07T12:26:22.224Z,1020
2023-01-07T12:27:22.246Z,1012
2023-01-07T12:28:22.207Z,996
2023-01-07T12:29:22.187Z,1004
2023-01-07T12:30:22.222Z,1000
2023-01-07T12:31:22.235Z,1004
2023-01-07T12:32:22.161Z,1032
2023-01-07T12:33:22.160Z,1032
2023-01-07T12:34:22.137Z,1044
2023-01-07T12:35:22.175Z,1012
2023-01-07T12:36:22.115Z,976
2023-01-07T12:37:22.099Z,928
2023-01-07T12:38:22.087Z,888
2023-01-07T12:39:22.106Z,860
2023-01-07T12:40:22.084Z,848
2023-01-07T12:41:22.056Z,844
2023-01-07T12:43:22.038Z,916
2023-01-07T12:44:22.029Z,960
2023-01-07T12:45:22.019Z,976
2023-01-07T12:46:22.002Z,980
2023-01-07T12:47:22.039Z,964
2023-01-07T12:48:22.050Z,912
2023-01-07T12:49:21.972Z,892
2023-01-07T12:50:22.004Z,868
2023-01-07T12:51:22.013Z,872
2023-01-07T12:52:21.938Z,884
2023-01-07T12:53:21.931Z,896
2023-01-07T12:54:21.917Z,920
2023-01-07T12:55:21.903Z,1008
2023-01-07T12:56:21.896Z,1172
2023-01-07T12:57:21.886Z,1448
2023-01-07T12:58:21.874Z,1676
2023-01-07T12:59:21.869Z,1692
2023-01-07T13:00:21.851Z,1656
2023-01-07T13:01:21.847Z,1632
2023-01-07T13:03:12.485Z,1744
2023-01-07T13:04:12.452Z,1732
2023-01-07T13:05:12.446Z,1756
2023-01-07T13:06:12.498Z,1812
2023-01-07T13:07:12.416Z,1832
2023-01-07T13:08:12.430Z,1872
2023-01-07T13:09:12.399Z,2068
2023-01-07T13:10:12.394Z,2308
2023-01-07T13:11:12.394Z,2148
2023-01-07T13:12:12.378Z,1948
2023-01-07T13:13:12.360Z,2068
2023-01-07T13:14:12.354Z,2396
2023-01-07T13:15:12.335Z,2976
2023-01-07T13:16:12.321Z,3396
2023-01-07T13:17:12.327Z,3376
2023-01-07T13:18:12.324Z,3080
2023-01-07T13:19:12.337Z,3136
2023-01-07T13:20:12.355Z,3284
2023-01-07T13:21:12.279Z,3556
2023-01-07T13:22:12.276Z,3768
2023-01-07T13:23:12.272Z,3956
2023-01-07T13:24:12.238Z,4084
2023-01-07T13:25:12.231Z,4148
2023-01-07T13:26:12.226Z,4072
2023-01-07T13:27:12.247Z,3912
2023-01-07T13:28:12.202Z,3552
2023-01-07T13:29:12.251Z,3344
2023-01-07T13:30:12.226Z,3184
2023-01-07T13:31:12.167Z,3052
2023-01-07T13:32:12.179Z,2748
2023-01-07T13:33:12.174Z,2756
2023-01-07T13:34:12.138Z,2968
2023-01-07T13:35:12.866Z,3020
2023-01-07T13:36:12.144Z,3384
2023-01-07T13:37:12.118Z,3796
2023-01-07T13:38:12.090Z,4412
2023-01-07T13:39:12.113Z,4684
2023-01-07T13:40:12.078Z,4500
2023-01-07T13:41:12.097Z,4372
2023-01-07T13:42:12.053Z,4620
2023-01-07T13:43:12.052Z,5392
2023-01-07T13:44:12.031Z,5984
2023-01-07T13:45:20.881Z,5804
2023-01-07T13:46:12.048Z,5232
2023-01-07T13:47:12.024Z,4912
2023-01-07T13:48:12.068Z,4860
2023-01-07T13:49:11.976Z,4648
2023-01-07T13:50:11.965Z,4348
2023-01-07T13:51:11.964Z,4328
2023-01-07T13:52:20.797Z,4512
2023-01-07T13:54:29.515Z,3756
2023-01-07T13:55:29.487Z,3612
2023-01-07T13:56:29.488Z,3576
2023-01-07T13:57:29.466Z,3572
2023-01-07T13:58:29.470Z,3380
2023-01-07T13:59:29.455Z,3360
2023-01-07T14:00:29.497Z,3360
2023-01-07T14:01:30.465Z,3700
2023-01-07T14:02:29.419Z,3764
2023-01-07T14:03:29.406Z,3516
2023-01-07T14:04:29.405Z,3280
2023-01-07T14:05:29.381Z,3204
2023-01-07T14:06:29.409Z,3272
2023-01-07T14:07:29.370Z,3276
2023-01-07T14:08:29.619Z,3452
2023-01-07T14:09:29.348Z,3432
2023-01-07T14:10:29.376Z,3020
2023-01-07T14:11:29.320Z,2568
2023-01-07T14:12:29.334Z,2232
2023-01-07T14:13:29.338Z,2216
2023-01-07T14:14:29.517Z,2256
2023-01-07T14:15:29.361Z,2080
2023-01-07T14:16:29.276Z,2044
2023-01-07T14:17:29.298Z,2140
2023-01-07T14:18:53.428Z,2152
2023-01-07T14:19:29.239Z,2160
2023-01-07T14:20:29.250Z,2284
2023-01-07T14:21:29.252Z,2384
2023-01-07T14:22:29.198Z,2248
2023-01-07T14:23:29.246Z,2084
2023-01-07T14:24:29.184Z,1928
2023-01-07T14:25:29.180Z,1812
2023-01-07T14:26:29.160Z,1788
2023-01-07T14:27:29.158Z,1684
2023-01-07T14:28:36.704Z,1544
2023-01-07T14:29:29.159Z,1400
2023-01-07T14:30:29.124Z,1320
2023-01-07T14:31:29.125Z,1320
2023-01-07T14:32:29.207Z,1200
2023-01-07T14:33:29.094Z,1176
2023-01-07T14:34:29.074Z,1036
2023-01-07T14:35:29.064Z,936
2023-01-07T14:36:29.075Z,952